Time;durP1;ratioP1;P1;durP2;ratioP2;P2;SDS_P1;SDS_P2;PMS_P1;PMS_P2;Temp;Humidity;BMP_temperature;BMP_pressure;BME280_temperature;BME280_humidity;BME280_pressure;Samples;Min_cycle;Max_cycle;Signal;HPM_P1;HPM_P2
2023/01/03 00:01:46;;;;;;;44.83;35.97;;;;;;;4.60;64.58;95959.00;5007128;28;20230;-68
2023/01/03 00:04:12;;;;;;;43.87;35.40;;;;;;;4.67;64.42;95956.03;5027688;28;20210;-67
2023/01/03 00:06:42;;;;;;;49.90;37.93;;;;;;;4.69;64.32;95960.22;5007556;28;20274;-67
2023/01/03 00:09:09;;;;;;;45.43;36.50;;;;;;;4.76;64.12;95958.09;5000772;28;20227;-68
2023/01/03 00:14:37;;;;;;;52.77;37.83;;;;;;;4.57;64.63;95971.34;5014425;28;20273;-68
2023/01/03 00:17:05;;;;;;;49.83;37.53;;;;;;;4.57;64.83;95956.59;4996740;28;20308;-68
2023/01/03 00:19:34;;;;;;;48.97;36.17;;;;;;;4.63;64.35;95956.22;4990001;28;20279;-68
2023/01/03 00:22:00;;;;;;;44.77;37.10;;;;;;;4.70;64.22;95954.06;4992030;28;20194;-67
2023/01/03 00:24:25;;;;;;;47.20;35.77;;;;;;;4.74;63.76;95950.34;5007724;28;20270;-68
2023/01/03 00:26:50;;;;;;;45.80;35.70;;;;;;;4.69;63.93;95955.00;4998363;28;20263;-68
2023/01/03 00:29:16;;;;;;;50.60;37.17;;;;;;;4.71;64.03;95963.56;4985329;28;20231;-67
2023/01/03 00:31:42;;;;;;;47.10;35.70;;;;;;;4.64;64.22;95965.69;4969413;28;20274;-68
2023/01/03 00:34:08;;;;;;;53.57;38.40;;;;;;;4.66;64.06;95964.78;4991221;28;20199;-67
2023/01/03 00:36:35;;;;;;;47.00;35.63;;;;;;;4.50;64.43;95957.88;4992890;28;20210;-67
2023/01/03 00:39:00;;;;;;;48.43;36.03;;;;;;;4.49;64.48;95953.59;5013711;28;20225;-67
2023/01/03 00:41:26;;;;;;;48.37;35.53;;;;;;;4.43;64.72;95957.38;4994905;28;20256;-67
2023/01/03 00:43:51;;;;;;;52.57;37.07;;;;;;;4.53;64.64;95956.84;4973245;28;20323;-67
2023/01/03 00:46:19;;;;;;;48.63;36.20;;;;;;;4.32;65.06;95951.97;4972258;28;20289;-67
2023/01/03 00:48:45;;;;;;;47.77;36.20;;;;;;;4.46;65.08;95955.53;4989046;28;20297;-67
2023/01/03 00:51:14;;;;;;;43.40;36.23;;;;;;;4.48;65.08;95944.09;5014344;28;20286;-68
2023/01/03 00:53:41;;;;;;;48.27;36.03;;;;;;;4.61;64.60;95944.22;5009333;28;20307;-68
2023/01/03 00:56:10;;;;;;;45.67;34.30;;;;;;;4.66;64.64;95947.38;5022445;28;20233;-68
2023/01/03 00:58:36;;;;;;;45.23;34.20;;;;;;;4.65;64.43;95945.69;5006168;28;20245;-68
2023/01/03 01:01:10;;;;;;;47.53;36.73;;;;;;;4.59;64.33;95948.66;5026065;28;20225;-68
2023/01/03 01:03:39;;;;;;;44.53;36.67;;;;;;;4.60;64.84;95959.00;5007786;28;20191;-68
2023/01/03 01:06:17;;;;;;;46.17;36.73;;;;;;;4.53;65.30;95952.47;5005154;28;20289;-68
2023/01/03 01:08:44;;;;;;;54.53;40.77;;;;;;;4.54;65.52;95945.50;5011098;28;20238;-68
2023/01/03 01:11:10;;;;;;;52.53;36.60;;;;;;;4.50;65.40;95949.22;5004745;28;20227;-69
2023/01/03 01:13:36;;;;;;;47.60;38.23;;;;;;;4.48;65.58;95940.66;5008643;28;20231;-68
2023/01/03 01:16:05;;;;;;;51.40;38.97;;;;;;;4.46;65.84;95937.31;5013189;28;20187;-68
2023/01/03 01:18:31;;;;;;;42.87;36.27;;;;;;;4.46;65.23;95942.50;5021382;28;20183;-68
2023/01/03 01:20:57;;;;;;;47.63;37.70;;;;;;;4.29;66.07;95933.13;4990933;28;20230;-67
2023/01/03 01:23:22;;;;;;;46.47;36.20;;;;;;;4.33;65.89;95932.84;5009524;28;20237;-67
2023/01/03 01:25:48;;;;;;;42.43;34.53;;;;;;;4.42;65.72;95936.66;5008841;28;20721;-67
2023/01/03 01:28:13;;;;;;;44.37;35.30;;;;;;;4.37;65.24;95931.72;5013363;28;20213;-67
2023/01/03 01:30:39;;;;;;;43.60;36.27;;;;;;;3.88;66.41;95934.63;5010261;28;20215;-67
2023/01/03 01:33:04;;;;;;;43.23;35.07;;;;;;;4.12;65.91;95932.34;5005531;28;20223;-67
2023/01/03 01:35:31;;;;;;;41.27;34.93;;;;;;;4.11;65.56;95927.22;5000447;28;20222;-67
2023/01/03 01:37:56;;;;;;;42.03;31.87;;;;;;;4.22;65.03;95929.19;5021753;28;20317;-68
2023/01/03 01:40:22;;;;;;;40.10;32.20;;;;;;;4.22;64.81;95929.19;4999944;28;20290;-67
2023/01/03 01:45:34;;;;;;;38.43;29.93;;;;;;;4.04;64.93;95925.94;5005583;28;20279;-68
2023/01/03 01:48:04;;;;;;;34.60;28.80;;;;;;;3.95;65.06;95928.09;5013794;28;20254;-67
2023/01/03 01:50:36;;;;;;;34.97;29.27;;;;;;;3.97;65.00;95926.25;5020307;28;20242;-67
2023/01/03 01:53:13;;;;;;;33.17;28.53;;;;;;;3.98;65.26;95921.88;5002841;28;20243;-67
2023/01/03 01:55:47;;;;;;;33.87;28.60;;;;;;;3.96;64.81;95919.38;4995724;28;20381;-67
2023/01/03 01:58:13;;;;;;;38.00;30.30;;;;;;;3.87;65.21;95917.31;5016329;28;20281;-68
2023/01/03 02:00:41;;;;;;;32.73;28.87;;;;;;;3.95;65.02;95922.06;5007017;28;20183;-67
2023/01/03 02:03:06;;;;;;;38.63;28.23;;;;;;;4.04;65.11;95920.72;5021273;28;20223;-67
2023/01/03 02:05:35;;;;;;;39.40;29.80;;;;;;;4.16;64.35;95922.59;5009376;28;20292;-67
2023/01/03 02:08:01;;;;;;;32.87;27.83;;;;;;;4.02;64.90;95918.19;5007289;28;20349;-68
2023/01/03 02:10:52;;;;;;;33.80;27.57;;;;;;;4.03;64.77;95929.44;5003530;28;20307;-68
2023/01/03 02:13:26;;;;;;;33.87;29.23;;;;;;;4.02;64.94;95922.56;4973065;28;20317;-68
2023/01/03 02:16:16;;;;;;;33.93;27.90;;;;;;;4.03;65.06;95927.66;4963286;28;20222;-67
2023/01/03 02:18:47;;;;;;;32.83;28.37;;;;;;;4.04;65.05;95916.34;4972143;28;20242;-67
2023/01/03 02:21:24;;;;;;;39.47;30.47;;;;;;;4.08;65.12;95922.19;4972062;28;20223;-68
2023/01/03 02:24:27;;;;;;;40.93;31.03;;;;;;;3.89;65.48;95918.06;4973521;28;20223;-68
2023/01/03 02:27:04;;;;;;;33.33;27.57;;;;;;;3.71;65.84;95919.94;4973586;28;20231;-67
2023/01/03 02:29:47;;;;;;;33.43;28.37;;;;;;;3.76;65.66;95917.94;4973889;28;20227;-67
2023/01/03 02:32:20;;;;;;;31.20;27.40;;;;;;;3.76;65.69;95915.31;4990917;28;20234;-67
2023/01/03 02:34:54;;;;;;;34.50;27.63;;;;;;;3.74;65.72;95914.59;4984929;28;20236;-68
2023/01/03 02:37:47;;;;;;;33.97;28.03;;;;;;;3.78;65.73;95914.41;4971451;28;20402;-67
2023/01/03 02:40:31;;;;;;;34.50;28.50;;;;;;;3.93;65.11;95919.56;4985141;28;20195;-67
2023/01/03 02:43:08;;;;;;;32.33;26.93;;;;;;;3.82;64.91;95919.34;4981672;28;20218;-68
2023/01/03 02:45:47;;;;;;;30.57;26.47;;;;;;;3.78;64.82;95911.81;4986306;28;20195;-68
2023/01/03 02:48:22;;;;;;;33.50;28.03;;;;;;;3.62;65.71;95911.84;4978362;28;20238;-67
2023/01/03 02:50:50;;;;;;;32.30;27.77;;;;;;;3.68;65.26;95916.69;4995600;28;20241;-68
2023/01/03 02:53:23;;;;;;;35.43;28.07;;;;;;;3.66;65.16;95914.19;5004708;28;20321;-69
2023/01/03 02:55:53;;;;;;;31.03;26.20;;;;;;;3.43;65.98;95912.91;4996992;28;20261;-67
2023/01/03 02:58:25;;;;;;;33.57;28.37;;;;;;;3.53;65.91;95916.66;5012642;28;20253;-67
2023/01/03 03:00:58;;;;;;;31.27;27.17;;;;;;;3.64;65.71;95903.03;5005043;28;20184;-67
2023/01/03 03:03:29;;;;;;;32.80;27.17;;;;;;;3.64;65.79;95910.00;5004011;28;20242;-67
2023/01/03 03:06:23;;;;;;;32.93;28.33;;;;;;;3.65;65.43;95898.66;5009166;28;20245;-67
2023/01/03 03:08:49;;;;;;;33.87;27.67;;;;;;;3.65;65.47;95909.91;4933334;28;20248;-67
2023/01/03 03:14:27;;;;;;;35.10;27.60;;;;;;;3.66;65.54;95915.94;4948283;28;20239;-68
2023/01/03 03:16:58;;;;;;;34.30;29.83;;;;;;;3.49;66.05;95906.50;4932122;28;20237;-67
2023/01/03 03:25:12;;;;;;;39.10;31.03;;;;;;;3.55;65.78;95903.53;4946944;28;20243;-67
2023/01/03 03:30:29;;;;;;;38.10;33.77;;;;;;;3.50;66.44;95898.63;4948538;28;20240;-67
2023/01/03 03:33:00;;;;;;;45.00;33.57;;;;;;;3.60;66.04;95909.31;4950663;28;20233;-67
2023/01/03 03:35:27;;;;;;;40.10;30.90;;;;;;;3.71;65.47;95911.31;4951283;28;20271;-67
2023/01/03 03:37:57;;;;;;;34.83;29.60;;;;;;;3.74;65.01;95913.75;4940187;28;20228;-67
2023/01/03 03:46:16;;;;;;;35.57;28.77;;;;;;;3.50;65.56;95913.38;4987566;28;20248;-67
2023/01/03 03:51:34;;;;;;;37.60;28.90;;;;;;;3.57;65.85;95921.69;5008720;28;20222;-67
2023/01/03 03:54:03;;;;;;;39.03;31.67;;;;;;;3.50;65.46;95911.63;5002466;28;20318;-67
2023/01/03 03:56:31;;;;;;;35.97;32.03;;;;;;;3.55;65.70;95916.56;4980291;28;20224;-67
2023/01/03 03:59:04;;;;;;;40.87;33.80;;;;;;;3.41;65.79;95913.91;5005375;28;20223;-68
2023/01/03 04:01:30;;;;;;;39.43;32.17;;;;;;;3.41;65.94;95912.13;4993345;28;20377;-67
2023/01/03 04:04:02;;;;;;;41.10;30.90;;;;;;;3.49;65.91;95917.75;4987796;28;20188;-67
2023/01/03 04:06:38;;;;;;;41.13;31.90;;;;;;;3.54;65.50;95913.13;5016484;28;20286;-67
2023/01/03 04:09:03;;;;;;;39.07;30.20;;;;;;;3.51;65.60;95902.06;5010784;28;20234;-67
2023/01/03 04:11:29;;;;;;;42.40;32.70;;;;;;;3.47;66.08;95911.78;5007976;28;20237;-66
2023/01/03 04:13:54;;;;;;;41.27;31.87;;;;;;;3.47;66.34;95905.75;5005697;28;20230;-67
2023/01/03 04:16:20;;;;;;;37.67;30.57;;;;;;;3.51;65.81;95912.47;5001204;28;20224;-66
2023/01/03 04:18:45;;;;;;;37.30;31.33;;;;;;;3.34;66.29;95903.00;4991693;28;20184;-66
2023/01/03 04:21:11;;;;;;;41.87;32.07;;;;;;;3.49;66.17;95912.53;4988403;28;20329;-67
2023/01/03 04:23:36;;;;;;;38.60;30.90;;;;;;;3.51;65.82;95902.91;4988784;28;20223;-67
2023/01/03 04:26:01;;;;;;;37.77;31.77;;;;;;;3.59;65.67;95904.22;4994787;28;20318;-66
2023/01/03 04:28:27;;;;;;;38.43;31.93;;;;;;;3.61;65.58;95910.16;5003323;28;20290;-66
2023/01/03 04:30:52;;;;;;;37.70;31.13;;;;;;;3.56;65.83;95909.63;4989412;28;20219;-67
2023/01/03 04:33:18;;;;;;;36.93;30.53;;;;;;;3.44;65.84;95914.56;5006030;28;20305;-67
2023/01/03 04:35:43;;;;;;;36.67;29.37;;;;;;;3.24;66.17;95904.47;5013694;28;20226;-67
2023/01/03 04:38:09;;;;;;;34.83;29.57;;;;;;;3.28;66.01;95918.94;5006311;28;20227;-67
2023/01/03 04:40:37;;;;;;;35.43;30.07;;;;;;;3.27;66.24;95919.88;5014992;28;20238;-66
2023/01/03 04:45:48;;;;;;;34.47;29.80;;;;;;;3.31;65.97;95932.63;5007950;28;20286;-68
2023/01/03 04:48:13;;;;;;;33.13;28.60;;;;;;;3.30;66.01;95927.50;5006710;28;20280;-66
2023/01/03 04:50:38;;;;;;;33.77;29.20;;;;;;;3.37;65.82;95933.19;5010826;28;20223;-68
2023/01/03 04:53:04;;;;;;;33.97;29.67;;;;;;;3.34;65.62;95936.78;5007424;28;20238;-67
2023/01/03 04:55:29;;;;;;;36.47;30.27;;;;;;;3.20;66.37;95941.91;5006479;28;20230;-68
2023/01/03 04:57:55;;;;;;;49.53;34.97;;;;;;;3.25;66.25;95942.50;5007317;28;20175;-68
2023/01/03 05:00:20;;;;;;;42.63;33.27;;;;;;;3.14;66.58;95944.88;4996766;28;20207;-68
2023/01/03 05:02:45;;;;;;;42.33;33.30;;;;;;;3.13;66.39;95945.78;5020444;28;20238;-68
2023/01/03 05:05:11;;;;;;;40.37;33.67;;;;;;;3.17;66.44;95949.88;5004636;28;20233;-67
2023/01/03 05:07:36;;;;;;;40.57;32.07;;;;;;;3.09;66.58;95958.09;5010409;28;20236;-67
2023/01/03 05:10:02;;;;;;;39.87;32.77;;;;;;;2.97;66.84;95949.22;5010415;28;20194;-68
2023/01/03 05:12:28;;;;;;;39.23;32.93;;;;;;;3.08;66.62;95946.88;5012061;28;20203;-68
2023/01/03 05:14:53;;;;;;;42.00;33.87;;;;;;;3.24;66.18;95948.66;5013571;28;20245;-68
2023/01/03 05:17:19;;;;;;;50.50;34.57;;;;;;;3.29;65.76;95944.88;4998391;28;20254;-67
2023/01/03 05:28:00;;;;;;;48.63;37.57;;;;;;;3.11;66.74;95956.25;5006395;28;20214;-67
2023/01/03 05:30:26;;;;;;;46.07;34.77;;;;;;;3.09;66.71;95958.09;5016832;28;20214;-67
2023/01/03 05:32:51;;;;;;;44.33;34.50;;;;;;;3.12;66.53;95951.91;5006017;28;20269;-67
2023/01/03 05:35:17;;;;;;;48.87;34.83;;;;;;;3.11;66.20;95953.66;5006246;28;20305;-67
2023/01/03 05:37:42;;;;;;;44.30;35.17;;;;;;;3.19;66.41;95948.06;5008811;28;20227;-68
2023/01/03 05:40:08;;;;;;;40.93;35.27;;;;;;;3.25;66.19;95952.91;5004982;28;20248;-67
2023/01/03 05:42:34;;;;;;;47.07;35.30;;;;;;;3.31;65.79;95949.97;5019948;28;20300;-67
2023/01/03 05:44:59;;;;;;;40.00;34.87;;;;;;;3.28;65.91;95937.97;4989832;28;20230;-67
2023/01/03 05:47:25;;;;;;;49.03;37.43;;;;;;;3.17;66.16;95945.53;5006355;28;20241;-67
2023/01/03 05:49:50;;;;;;;48.20;35.57;;;;;;;3.09;66.50;95937.31;5004248;28;20315;-67
2023/01/03 05:52:41;;;;;;;47.67;38.37;;;;;;;3.11;66.45;95945.03;4988148;28;20350;-67
2023/01/03 05:55:07;;;;;;;50.60;37.23;;;;;;;3.13;66.45;95946.63;4997912;28;20191;-67
2023/01/03 05:57:32;;;;;;;46.47;37.33;;;;;;;3.12;66.69;95951.91;5007422;28;20222;-67
2023/01/03 05:59:58;;;;;;;46.10;37.77;;;;;;;3.17;66.45;95945.53;5011742;28;20269;-68
2023/01/03 06:02:23;;;;;;;47.13;40.37;;;;;;;3.20;65.98;95949.72;5004747;28;20226;-67
2023/01/03 06:04:48;;;;;;;50.73;40.37;;;;;;;3.11;66.07;95953.66;5008101;28;20245;-66
2023/01/03 06:07:14;;;;;;;50.00;41.30;;;;;;;3.16;66.32;95953.44;5007696;28;20218;-66
2023/01/03 06:09:39;;;;;;;53.83;42.83;;;;;;;3.13;66.41;95963.97;4994025;28;20440;-66
2023/01/03 06:12:05;;;;;;;57.27;45.07;;;;;;;3.10;66.60;95967.56;5013524;28;20273;-67
2023/01/03 06:14:30;;;;;;;59.07;45.57;;;;;;;3.15;66.54;95969.91;5014643;28;20226;-68
2023/01/03 06:19:40;;;;;;;61.77;46.40;;;;;;;3.07;66.81;95970.31;5000580;28;20237;-67
2023/01/03 06:22:05;;;;;;;58.57;48.87;;;;;;;3.22;66.33;95973.88;5009471;28;20182;-66
2023/01/03 06:24:30;;;;;;;60.17;48.63;;;;;;;3.02;66.87;95973.19;5000943;28;20217;-68
2023/01/03 06:26:57;;;;;;;63.07;47.57;;;;;;;3.01;66.99;95976.69;4995418;28;20231;-66
2023/01/03 06:29:22;;;;;;;63.83;46.97;;;;;;;3.08;66.71;95987.63;5007399;28;20241;-67
2023/01/03 06:31:48;;;;;;;61.83;48.83;;;;;;;3.11;66.48;95977.06;5002582;28;20226;-67
2023/01/03 06:34:13;;;;;;;66.03;51.20;;;;;;;3.17;66.73;95975.88;5002934;28;20191;-67
2023/01/03 06:36:39;;;;;;;64.57;54.53;;;;;;;3.28;66.48;95970.94;5007834;28;20191;-66
2023/01/03 06:39:04;;;;;;;67.33;54.47;;;;;;;3.24;66.09;95962.47;5000086;28;20288;-67
2023/01/03 06:41:30;;;;;;;71.27;56.70;;;;;;;3.12;66.51;95973.53;5015046;28;20215;-65
2023/01/03 06:43:55;;;;;;;75.00;56.00;;;;;;;3.29;66.21;95970.03;5005547;28;20214;-67
2023/01/03 06:54:36;;;;;;;70.53;58.30;;;;;;;3.28;66.31;95973.53;5003855;28;20225;-68
2023/01/03 06:57:02;;;;;;;75.80;61.77;;;;;;;3.36;65.34;95983.50;5020404;28;20211;-67
2023/01/03 06:59:28;;;;;;;77.80;63.13;;;;;;;3.33;65.66;95986.28;4994282;28;20382;-66
2023/01/03 07:01:54;;;;;;;79.53;60.43;;;;;;;3.37;65.33;95988.63;5004716;28;20231;-68
2023/01/03 07:04:21;;;;;;;75.97;61.30;;;;;;;3.29;65.30;95996.03;5004775;28;20225;-66
2023/01/03 07:06:46;;;;;;;70.40;58.73;;;;;;;3.10;65.62;96001.34;5008803;28;20194;-66
2023/01/03 07:09:12;;;;;;;68.50;56.10;;;;;;;2.80;66.57;96014.19;5007062;28;20234;-66
2023/01/03 07:11:39;;;;;;;65.43;55.23;;;;;;;2.77;67.23;96009.16;5010073;28;20226;-66
2023/01/03 07:14:06;;;;;;;64.97;52.60;;;;;;;2.93;67.13;96007.44;5005632;28;20227;-66
2023/01/03 07:16:38;;;;;;;62.17;51.93;;;;;;;3.15;66.48;96007.13;5023829;28;20329;-66
2023/01/03 07:19:06;;;;;;;63.10;52.07;;;;;;;3.28;65.85;96000.34;5006159;28;20178;-65
2023/01/03 07:21:33;;;;;;;61.93;51.27;;;;;;;3.46;65.27;96011.53;5006178;28;20252;-68
2023/01/03 07:24:00;;;;;;;62.50;50.43;;;;;;;3.45;65.27;96020.25;5006640;28;20309;-68
2023/01/03 07:26:28;;;;;;;60.73;48.57;;;;;;;3.50;65.18;96015.66;5002874;28;20220;-67
2023/01/03 07:28:54;;;;;;;58.23;48.53;;;;;;;3.64;64.81;96027.06;5005109;28;20235;-67
2023/01/03 07:31:19;;;;;;;58.20;48.20;;;;;;;3.63;64.74;96020.16;4986635;28;20223;-67
2023/01/03 07:33:45;;;;;;;59.63;48.33;;;;;;;3.81;64.62;96018.28;5022002;28;20186;-68
2023/01/03 07:36:13;;;;;;;65.07;52.17;;;;;;;3.56;65.26;96019.66;5002437;28;20238;-67
2023/01/03 07:38:40;;;;;;;73.30;55.60;;;;;;;3.63;65.37;96022.75;5008436;28;20251;-69
2023/01/03 07:41:09;;;;;;;73.60;54.90;;;;;;;3.88;64.84;96020.47;5011363;28;20260;-66
2023/01/03 07:43:36;;;;;;;57.93;48.00;;;;;;;3.93;64.31;96013.25;5005213;28;20246;-66
2023/01/03 07:46:06;;;;;;;72.60;52.03;;;;;;;3.94;64.90;96019.28;5007728;28;20277;-66
2023/01/03 07:48:32;;;;;;;60.90;49.33;;;;;;;4.12;64.29;96017.41;5010441;28;20229;-65
2023/01/03 07:50:58;;;;;;;62.97;49.33;;;;;;;4.27;64.03;96013.91;5012328;28;20322;-68
2023/01/03 07:53:23;;;;;;;65.20;48.87;;;;;;;4.41;64.16;96026.13;5005670;28;20246;-67
2023/01/03 07:55:49;;;;;;;59.27;46.90;;;;;;;4.47;64.09;96017.13;5003264;28;20234;-67
2023/01/03 07:58:14;;;;;;;58.97;48.67;;;;;;;4.46;63.87;96007.63;5015843;28;20183;-67
2023/01/03 08:00:40;;;;;;;65.20;50.63;;;;;;;4.67;63.80;96015.94;5010317;28;20179;-64
2023/01/03 08:03:07;;;;;;;62.13;49.77;;;;;;;4.67;63.56;96013.34;5015801;28;20219;-65
2023/01/03 08:05:34;;;;;;;63.17;50.90;;;;;;;4.62;63.76;96011.00;5014370;28;20222;-67
2023/01/03 08:08:00;;;;;;;57.93;48.43;;;;;;;4.84;63.54;96021.81;5021444;28;20242;-66
2023/01/03 08:13:18;;;;;;;60.67;48.93;;;;;;;4.95;63.48;96020.34;4999133;28;20245;-67
2023/01/03 08:15:45;;;;;;;65.80;49.47;;;;;;;5.04;63.38;96014.56;5004690;28;20178;-66
2023/01/03 08:18:11;;;;;;;59.37;43.67;;;;;;;5.14;63.90;96012.25;5014650;28;20223;-65
2023/01/03 08:20:37;;;;;;;59.37;46.83;;;;;;;5.24;63.42;96008.97;5000459;28;20218;-65
2023/01/03 08:23:02;;;;;;;64.30;47.13;;;;;;;5.21;63.79;96009.16;5016419;28;20227;-65
2023/01/03 08:25:28;;;;;;;55.37;42.60;;;;;;;5.22;64.09;96021.25;5011351;28;20273;-65
2023/01/03 08:27:57;;;;;;;55.07;43.23;;;;;;;5.42;63.72;96011.34;5011140;28;20256;-64
2023/01/03 08:30:22;;;;;;;55.87;42.93;;;;;;;5.55;63.73;96017.47;5003098;28;20302;-64
2023/01/03 08:32:48;;;;;;;47.33;39.20;;;;;;;5.71;63.29;96014.75;5004515;28;20338;-66
2023/01/03 08:35:14;;;;;;;50.40;39.60;;;;;;;5.75;63.86;96016.22;5008660;28;20289;-65
2023/01/03 08:37:42;;;;;;;47.53;38.37;;;;;;;5.86;63.61;96005.94;5011852;28;20218;-66
2023/01/03 08:40:10;;;;;;;42.17;34.33;;;;;;;5.94;63.43;96002.88;5010892;28;20183;-67
2023/01/03 08:42:36;;;;;;;42.40;33.93;;;;;;;6.00;63.36;96010.28;5007548;28;20273;-65
2023/01/03 08:45:05;;;;;;;47.83;32.17;;;;;;;6.02;63.06;96011.03;5005151;28;20218;-67
2023/01/03 08:47:31;;;;;;;44.17;34.83;;;;;;;6.05;63.33;96010.00;5007715;28;20294;-67
2023/01/03 08:49:58;;;;;;;40.50;31.83;;;;;;;6.25;63.16;96019.97;5003356;28;20224;-65
2023/01/03 08:52:23;;;;;;;44.23;34.20;;;;;;;6.33;62.31;96016.84;5010213;28;20257;-66
2023/01/03 08:54:49;;;;;;;44.83;33.97;;;;;;;6.56;61.23;96016.16;5008444;28;20243;-63
2023/01/03 08:57:14;;;;;;;46.80;35.47;;;;;;;6.16;62.70;96000.53;5005079;28;20223;-66
2023/01/03 08:59:40;;;;;;;47.70;36.10;;;;;;;6.35;62.18;96007.97;5008242;28;20214;-67
2023/01/03 09:02:05;;;;;;;46.77;36.07;;;;;;;6.40;61.93;95994.63;5014635;28;20761;-64
2023/01/03 09:04:30;;;;;;;44.00;34.83;;;;;;;6.50;60.76;95998.28;5001935;28;20338;-68
2023/01/03 09:06:56;;;;;;;47.67;38.07;;;;;;;6.34;61.29;96002.88;5016005;28;20186;-64
2023/01/03 09:09:21;;;;;;;51.33;39.83;;;;;;;6.41;61.31;95996.28;5005556;28;20199;-64
2023/01/03 09:11:47;;;;;;;52.20;38.97;;;;;;;6.55;61.05;95990.16;5016493;28;20234;-68
2023/01/03 09:14:13;;;;;;;54.70;40.43;;;;;;;6.77;60.28;95979.91;5006239;28;20227;-64
2023/01/03 09:16:38;;;;;;;56.13;41.90;;;;;;;6.80;60.63;95987.53;5010811;28;20227;-67
2023/01/03 09:19:04;;;;;;;57.27;41.93;;;;;;;6.85;60.21;95992.47;5009586;28;20206;-66
2023/01/03 09:21:29;;;;;;;52.00;38.67;;;;;;;7.25;58.22;95984.47;5011944;28;20194;-68
2023/01/03 09:23:57;;;;;;;53.83;38.97;;;;;;;6.92;59.30;95964.94;5002223;28;20242;-67
2023/01/03 09:26:23;;;;;;;53.33;39.80;;;;;;;6.71;59.90;95982.09;5012025;28;20223;-67
2023/01/03 09:28:49;;;;;;;51.93;39.73;;;;;;;6.79;60.14;95966.72;5007374;28;20323;-66
2023/01/03 09:31:14;;;;;;;55.17;41.30;;;;;;;6.98;59.88;95964.53;5007324;28;20180;-67
2023/01/03 09:33:39;;;;;;;62.67;42.50;;;;;;;7.01;59.15;95969.53;5006104;28;20252;-68
2023/01/03 09:36:05;;;;;;;59.00;44.97;;;;;;;7.01;59.28;95969.53;5006929;28;20224;-66
2023/01/03 09:38:30;;;;;;;59.60;43.07;;;;;;;7.05;59.55;95955.28;5004853;28;20221;-66
2023/01/03 09:41:23;;;;;;;54.17;42.03;;;;;;;7.09;59.85;95955.09;5009593;28;20218;-66
2023/01/03 09:43:54;;;;;;;61.43;43.47;;;;;;;7.31;59.37;95955.25;4971022;28;20241;-68
2023/01/03 09:46:24;;;;;;;58.37;44.87;;;;;;;7.46;58.65;95943.69;4969705;28;20224;-67
2023/01/03 09:48:51;;;;;;;62.83;45.97;;;;;;;7.68;58.16;95942.97;4955630;28;20235;-67
2023/01/03 10:05:53;;;;;;;64.23;46.50;;;;;;;8.29;55.46;95914.03;4963883;28;20234;-68
2023/01/03 10:08:33;;;;;;;61.03;45.53;;;;;;;8.15;56.34;95914.22;4957371;28;20314;-68
2023/01/03 10:11:06;;;;;;;57.77;45.70;;;;;;;8.27;55.84;95907.25;4970272;28;20223;-68
2023/01/03 10:13:50;;;;;;;62.13;47.83;;;;;;;8.17;56.18;95902.69;4952048;28;20243;-68
2023/01/03 10:16:54;;;;;;;61.53;46.10;;;;;;;8.24;55.97;95903.06;4968678;28;20236;-67
2023/01/03 10:19:35;;;;;;;58.70;45.20;;;;;;;8.35;55.92;95895.22;4911806;29;20235;-68
2023/01/03 10:22:11;;;;;;;59.73;47.47;;;;;;;8.44;55.68;95898.13;4953454;28;20203;-68
2023/01/03 10:25:03;;;;;;;64.17;48.07;;;;;;;8.50;55.17;95887.16;4954573;28;20266;-65
2023/01/03 10:27:34;;;;;;;64.70;50.23;;;;;;;8.70;55.51;95888.28;4967558;28;20231;-68
2023/01/03 10:30:02;;;;;;;66.23;49.50;;;;;;;8.88;54.59;95891.25;4954219;28;20240;-65
2023/01/03 10:32:49;;;;;;;69.40;50.17;;;;;;;8.84;55.13;95883.59;4968663;28;20232;-66
2023/01/03 10:35:17;;;;;;;66.37;50.57;;;;;;;8.89;54.81;95877.19;4950088;28;20235;-65
2023/01/03 10:37:44;;;;;;;68.83;49.87;;;;;;;8.97;54.88;95870.38;4963743;28;20235;-66
2023/01/03 10:40:10;;;;;;;68.73;49.97;;;;;;;9.07;55.06;95869.66;4952455;28;20220;-69
2023/01/03 10:42:38;;;;;;;77.20;52.17;;;;;;;8.98;54.84;95861.56;4954711;28;20318;-72
2023/01/03 10:45:20;;;;;;;71.63;51.90;;;;;;;9.01;54.64;95856.06;4967189;28;20262;-72
2023/01/03 10:47:59;;;;;;;70.17;51.43;;;;;;;9.09;54.94;95867.72;4948425;28;20237;-73
2023/01/03 10:50:25;;;;;;;72.07;50.27;;;;;;;8.81;55.83;95852.38;4948300;28;20224;-66
2023/01/03 10:53:05;;;;;;;65.87;48.30;;;;;;;9.08;55.02;95847.69;4952023;28;20346;-67
2023/01/03 10:55:34;;;;;;;66.73;49.67;;;;;;;9.20;55.03;95854.59;4975269;28;20342;-66
2023/01/03 10:58:01;;;;;;;65.43;48.27;;;;;;;9.46;54.66;95839.34;4984977;28;20184;-66
2023/01/03 11:00:33;;;;;;;58.57;47.20;;;;;;;9.64;54.13;95842.28;5002018;28;20179;-67
2023/01/03 11:03:08;;;;;;;58.83;46.73;;;;;;;9.86;53.70;95838.72;5015274;28;20231;-66
2023/01/03 11:05:35;;;;;;;56.37;44.07;;;;;;;10.03;52.95;95830.28;5018361;28;20230;-67
2023/01/03 11:08:03;;;;;;;55.07;44.77;;;;;;;10.00;53.11;95825.28;5011817;28;20325;-67
2023/01/03 11:10:56;;;;;;;54.30;45.23;;;;;;;10.09;53.21;95821.88;4996500;28;20228;-66
2023/01/03 11:13:39;;;;;;;58.27;44.53;;;;;;;9.93;53.38;95822.31;4981533;28;20226;-66
2023/01/03 11:16:18;;;;;;;54.63;44.90;;;;;;;10.09;53.15;95815.78;4987106;28;20179;-66
2023/01/03 11:18:58;;;;;;;56.93;44.17;;;;;;;10.27;52.77;95816.03;5005785;28;21898;-66
2023/01/03 11:21:34;;;;;;;54.20;44.70;;;;;;;10.40;52.55;95810.56;5003249;28;20243;-65
2023/01/03 11:24:05;;;;;;;54.67;43.80;;;;;;;10.58;52.03;95807.22;5004429;28;20297;-68
2023/01/03 11:27:01;;;;;;;54.40;42.00;;;;;;;10.52;52.56;95801.66;5007362;28;20235;-68
2023/01/03 11:29:38;;;;;;;50.97;43.23;;;;;;;10.43;52.90;95800.66;4943013;29;20241;-68
2023/01/03 11:32:31;;;;;;;56.53;43.20;;;;;;;10.58;52.34;95790.59;4928314;29;20237;-68
2023/01/03 11:35:27;;;;;;;59.33;43.57;;;;;;;10.64;52.21;95786.59;4927544;29;20236;-68
2023/01/03 11:38:30;;;;;;;57.57;45.17;;;;;;;10.69;52.26;95784.41;4934000;28;20256;-67
2023/01/03 11:40:55;;;;;;;53.67;43.67;;;;;;;10.71;52.21;95780.66;4924496;28;20234;-65
2023/01/03 11:43:49;;;;;;;57.20;45.67;;;;;;;10.98;51.73;95779.22;4921855;28;20233;-65
2023/01/03 11:46:40;;;;;;;54.80;44.27;;;;;;;11.17;51.24;95765.25;4896597;29;20256;-67
2023/01/03 11:49:19;;;;;;;57.47;44.07;;;;;;;11.22;50.70;95768.31;4912176;29;20218;-67
2023/01/03 11:52:00;;;;;;;57.30;46.83;;;;;;;11.33;50.88;95765.53;4909389;29;20208;-68
2023/01/03 11:54:28;;;;;;;59.40;47.10;;;;;;;11.42;50.91;95763.91;4892736;29;20237;-68
2023/01/03 11:56:59;;;;;;;57.30;45.53;;;;;;;11.44;50.66;95759.31;4897215;29;20310;-67
2023/01/03 11:59:46;;;;;;;56.43;45.33;;;;;;;11.51;50.65;95756.97;4909281;29;20242;-67
2023/01/03 12:02:24;;;;;;;55.20;46.23;;;;;;;11.71;50.51;95750.72;4906561;29;20227;-67
2023/01/03 12:04:49;;;;;;;61.10;47.80;;;;;;;11.78;50.17;95749.16;4911611;29;20323;-67
2023/01/03 12:07:18;;;;;;;60.23;47.80;;;;;;;12.05;49.27;95745.81;4966755;28;20250;-68
2023/01/03 12:09:52;;;;;;;54.93;46.33;;;;;;;12.20;49.32;95748.81;4987554;28;20576;-68
2023/01/03 12:12:18;;;;;;;56.63;46.47;;;;;;;12.34;48.77;95748.34;4990739;28;20215;-69
2023/01/03 12:14:59;;;;;;;56.00;47.17;;;;;;;12.53;48.92;95750.06;4971038;28;20224;-69
2023/01/03 12:17:37;;;;;;;59.70;45.47;;;;;;;12.70;48.43;95755.59;4981187;28;20222;-68
2023/01/03 12:20:20;;;;;;;59.65;47.50;;;;;;;12.93;47.11;95748.06;4986483;28;20235;-68
2023/01/03 12:23:15;;;;;;;54.22;46.83;;;;;;;12.91;46.71;95744.75;4994993;28;20223;-68
2023/01/03 12:25:49;;;;;;;60.38;48.03;;;;;;;12.98;46.87;95743.19;5005971;28;20226;-68
2023/01/03 12:28:48;;;;;;;57.33;48.45;;;;;;;13.13;46.34;95743.50;5003710;28;20221;-68
2023/01/03 12:31:34;;;;;;;63.10;48.23;;;;;;;13.31;46.06;95736.47;4952451;28;20196;-68
2023/01/03 12:34:29;;;;;;;49.45;43.78;;;;;;;13.29;46.16;95738.41;4946767;29;20197;-67
2023/01/03 12:37:15;;;;;;;55.87;47.37;;;;;;;13.47;45.50;95738.41;4951104;28;20193;-66
2023/01/03 12:39:55;;;;;;;57.72;48.25;;;;;;;13.59;45.13;95731.09;4927906;29;20271;-67
2023/01/03 12:42:45;;;;;;;59.80;47.42;;;;;;;13.64;45.34;95732.28;4949361;28;20254;-65
2023/01/03 12:45:48;;;;;;;58.38;47.83;;;;;;;13.73;45.81;95734.97;4932541;29;20645;-65